sensor_id;sensor_type;location;lat;lon;timestamp;pressure;altitude;pressure_sealevel;temperature;humidity
42519;BME280;28147;47.520;18.920;2023-05-25T00:00:09;98600.47;;;20.45;58.97
42519;BME280;28147;47.520;18.920;2023-05-25T00:02:36;98603.16;;;20.26;60.03
42519;BME280;28147;47.520;18.920;2023-05-25T00:05:02;98598.28;;;20.28;60.10
42519;BME280;28147;47.520;18.920;2023-05-25T00:07:27;98610.19;;;20.27;60.35
42519;BME280;28147;47.520;18.920;2023-05-25T00:09:53;98607.94;;;20.34;60.40
42519;BME280;28147;47.520;18.920;2023-05-25T00:12:19;98604.00;;;20.46;60.22
42519;BME280;28147;47.520;18.920;2023-05-25T00:14:45;98609.84;;;20.53;60.17
42519;BME280;28147;47.520;18.920;2023-05-25T00:17:10;98615.53;;;20.70;59.74
42519;BME280;28147;47.520;18.920;2023-05-25T00:19:37;98614.19;;;21.19;57.68
42519;BME280;28147;47.520;18.920;2023-05-25T00:22:08;98614.25;;;21.00;58.94
42519;BME280;28147;47.520;18.920;2023-05-25T00:24:35;98606.88;;;20.87;59.28
42519;BME280;28147;47.520;18.920;2023-05-25T00:27:01;98604.34;;;20.77;60.04
42519;BME280;28147;47.520;18.920;2023-05-25T00:29:27;98600.44;;;20.83;59.82
42519;BME280;28147;47.520;18.920;2023-05-25T00:31:52;98602.56;;;20.86;60.01
42519;BME280;28147;47.520;18.920;2023-05-25T00:34:18;98600.38;;;20.88;60.06
42519;BME280;28147;47.520;18.920;2023-05-25T00:36:44;98602.44;;;20.77;60.34
42519;BME280;28147;47.520;18.920;2023-05-25T00:39:13;98601.16;;;20.56;61.21
42519;BME280;28147;47.520;18.920;2023-05-25T00:41:43;98606.03;;;20.73;61.13
42519;BME280;28147;47.520;18.920;2023-05-25T00:44:10;98609.31;;;20.88;60.22
42519;BME280;28147;47.520;18.920;2023-05-25T00:46:50;98598.78;;;20.68;60.48
42519;BME280;28147;47.520;18.920;2023-05-25T00:49:17;98618.19;;;20.56;60.97
42519;BME280;28147;47.520;18.920;2023-05-25T00:51:44;98617.69;;;20.87;60.26
42519;BME280;28147;47.520;18.920;2023-05-25T00:54:14;98600.38;;;20.88;60.06
42519;BME280;28147;47.520;18.920;2023-05-25T00:56:43;98621.72;;;20.89;59.98
42519;BME280;28147;47.520;18.920;2023-05-25T00:59:14;98619.13;;;20.98;59.75
42519;BME280;28147;47.520;18.920;2023-05-25T01:01:42;98616.06;;;20.72;60.40
42519;BME280;28147;47.520;18.920;2023-05-25T01:04:10;98629.06;;;20.70;60.54
42519;BME280;28147;47.520;18.920;2023-05-25T01:06:42;98625.22;;;20.90;59.95
42519;BME280;28147;47.520;18.920;2023-05-25T01:09:10;98623.38;;;21.04;59.33
42519;BME280;28147;47.520;18.920;2023-05-25T01:11:38;98619.03;;;21.22;59.49
42519;BME280;28147;47.520;18.920;2023-05-25T01:14:05;98617.38;;;21.07;59.37
42519;BME280;28147;47.520;18.920;2023-05-25T01:16:30;98623.97;;;21.01;60.13
42519;BME280;28147;47.520;18.920;2023-05-25T01:18:56;98607.31;;;20.94;60.49
42519;BME280;28147;47.520;18.920;2023-05-25T01:21:26;98620.72;;;20.85;60.86
42519;BME280;28147;47.520;18.920;2023-05-25T01:24:04;98617.69;;;20.87;60.16
42519;BME280;28147;47.520;18.920;2023-05-25T01:26:43;98614.34;;;20.95;60.00
42519;BME280;28147;47.520;18.920;2023-05-25T01:29:11;98616.09;;;20.86;60.35
42519;BME280;28147;47.520;18.920;2023-05-25T01:31:38;98625.22;;;20.90;60.24
42519;BME280;28147;47.520;18.920;2023-05-25T01:34:04;98626.22;;;20.61;61.23
42519;BME280;28147;47.520;18.920;2023-05-25T01:36:30;98628.75;;;20.34;61.87
42519;BME280;28147;47.520;18.920;2023-05-25T01:38:56;98638.44;;;20.59;60.88
42519;BME280;28147;47.520;18.920;2023-05-25T01:41:22;98630.69;;;20.52;61.04
42519;BME280;28147;47.520;18.920;2023-05-25T01:43:47;98639.53;;;20.77;60.79
42519;BME280;28147;47.520;18.920;2023-05-25T01:46:29;98633.94;;;20.87;59.68
42519;BME280;28147;47.520;18.920;2023-05-25T01:49:06;98632.72;;;20.79;60.10
42519;BME280;28147;47.520;18.920;2023-05-25T01:51:43;98630.16;;;20.88;59.61
42519;BME280;28147;47.520;18.920;2023-05-25T01:54:17;98629.22;;;21.11;58.66
42519;BME280;28147;47.520;18.920;2023-05-25T01:56:45;98634.97;;;20.91;59.29
42519;BME280;28147;47.520;18.920;2023-05-25T01:59:19;98638.25;;;20.31;60.85
42519;BME280;28147;47.520;18.920;2023-05-25T02:01:46;98636.22;;;20.42;60.85
42519;BME280;28147;47.520;18.920;2023-05-25T02:04:13;98635.03;;;20.48;60.84
42519;BME280;28147;47.520;18.920;2023-05-25T02:06:39;98636.50;;;20.78;59.83
42519;BME280;28147;47.520;18.920;2023-05-25T02:09:05;98631.44;;;20.58;60.21
42519;BME280;28147;47.520;18.920;2023-05-25T02:11:30;98633.34;;;20.57;60.22
42519;BME280;28147;47.520;18.920;2023-05-25T02:13:56;98634.13;;;20.58;60.01
42519;BME280;28147;47.520;18.920;2023-05-25T02:16:21;98630.38;;;20.35;60.96
42519;BME280;28147;47.520;18.920;2023-05-25T02:18:47;98639.44;;;20.44;60.68
42519;BME280;28147;47.520;18.920;2023-05-25T02:21:12;98644.88;;;20.63;60.43
42519;BME280;28147;47.520;18.920;2023-05-25T02:23:38;98646.03;;;20.57;60.54
42519;BME280;28147;47.520;18.920;2023-05-25T02:26:03;98647.13;;;20.75;59.73
42519;BME280;28147;47.520;18.920;2023-05-25T02:28:29;98640.66;;;20.33;61.36
42519;BME280;28147;47.520;18.920;2023-05-25T02:30:54;98641.38;;;20.62;60.46
42519;BME280;28147;47.520;18.920;2023-05-25T02:33:19;98645.78;;;20.15;61.99
42519;BME280;28147;47.520;18.920;2023-05-25T02:35:45;98641.50;;;20.09;62.56
42519;BME280;28147;47.520;18.920;2023-05-25T02:38:10;98633.66;;;20.32;61.63
42519;BME280;28147;47.520;18.920;2023-05-25T02:40:36;98643.91;;;20.35;61.95
42519;BME280;28147;47.520;18.920;2023-05-25T02:43:01;98648.50;;;20.34;61.68
42519;BME280;28147;47.520;18.920;2023-05-25T02:45:27;98647.66;;;20.77;60.40
42519;BME280;28147;47.520;18.920;2023-05-25T02:47:52;98650.41;;;20.53;61.27
42519;BME280;28147;47.520;18.920;2023-05-25T02:50:17;98647.50;;;20.49;61.10
42519;BME280;28147;47.520;18.920;2023-05-25T02:52:43;98651.88;;;20.83;59.52
42519;BME280;28147;47.520;18.920;2023-05-25T02:55:08;98649.53;;;20.38;61.05
42519;BME280;28147;47.520;18.920;2023-05-25T02:57:37;98646.81;;;20.38;60.98
42519;BME280;28147;47.520;18.920;2023-05-25T03:00:04;98647.94;;;20.56;60.33
42519;BME280;28147;47.520;18.920;2023-05-25T03:02:30;98656.66;;;20.53;60.41
42519;BME280;28147;47.520;18.920;2023-05-25T03:04:56;98657.09;;;20.36;60.54
42519;BME280;28147;47.520;18.920;2023-05-25T03:07:22;98665.06;;;20.28;61.09
42519;BME280;28147;47.520;18.920;2023-05-25T03:09:51;98669.91;;;20.31;61.13
42519;BME280;28147;47.520;18.920;2023-05-25T03:12:16;98660.44;;;20.09;61.46
42519;BME280;28147;47.520;18.920;2023-05-25T03:14:41;98666.19;;;20.46;60.29
42519;BME280;28147;47.520;18.920;2023-05-25T03:17:07;98669.66;;;20.08;61.45
42519;BME280;28147;47.520;18.920;2023-05-25T03:19:32;98667.69;;;20.33;60.83
42519;BME280;28147;47.520;18.920;2023-05-25T03:21:57;98672.84;;;20.34;60.79
42519;BME280;28147;47.520;18.920;2023-05-25T03:24:23;98670.63;;;20.36;60.62
42519;BME280;28147;47.520;18.920;2023-05-25T03:26:48;98670.50;;;20.47;60.20
42519;BME280;28147;47.520;18.920;2023-05-25T03:29:13;98679.09;;;20.30;60.56
42519;BME280;28147;47.520;18.920;2023-05-25T03:31:39;98667.94;;;20.36;60.57
42519;BME280;28147;47.520;18.920;2023-05-25T03:34:05;98670.09;;;20.15;60.99
42519;BME280;28147;47.520;18.920;2023-05-25T03:36:31;98666.44;;;20.25;60.83
42519;BME280;28147;47.520;18.920;2023-05-25T03:38:58;98667.31;;;20.21;61.31
42519;BME280;28147;47.520;18.920;2023-05-25T03:41:23;98673.19;;;20.28;61.62
42519;BME280;28147;47.520;18.920;2023-05-25T03:43:49;98672.91;;;20.05;61.85
42519;BME280;28147;47.520;18.920;2023-05-25T03:46:14;98682.41;;;20.27;61.46
42519;BME280;28147;47.520;18.920;2023-05-25T03:48:40;98678.44;;;20.62;60.48
42519;BME280;28147;47.520;18.920;2023-05-25T03:51:05;98671.78;;;20.54;60.28
42519;BME280;28147;47.520;18.920;2023-05-25T03:53:30;98677.41;;;20.77;59.79
42519;BME280;28147;47.520;18.920;2023-05-25T03:55:56;98678.34;;;20.67;60.13
42519;BME280;28147;47.520;18.920;2023-05-25T03:58:21;98693.25;;;20.22;61.81
42519;BME280;28147;47.520;18.920;2023-05-25T04:00:47;98692.22;;;20.17;62.30
42519;BME280;28147;47.520;18.920;2023-05-25T04:03:16;98696.56;;;20.37;61.71
42519;BME280;28147;47.520;18.920;2023-05-25T04:05:42;98696.94;;;20.31;61.82
42519;BME280;28147;47.520;18.920;2023-05-25T04:08:14;98701.44;;;20.59;61.00
42519;BME280;28147;47.520;18.920;2023-05-25T04:10:43;98701.00;;;20.71;60.56
42519;BME280;28147;47.520;18.920;2023-05-25T04:13:08;98710.81;;;20.67;61.03
42519;BME280;28147;47.520;18.920;2023-05-25T04:15:34;98703.72;;;20.71;61.03
42519;BME280;28147;47.520;18.920;2023-05-25T04:17:59;98706.53;;;20.42;61.71
42519;BME280;28147;47.520;18.920;2023-05-25T04:20:27;98700.03;;;20.43;62.33
42519;BME280;28147;47.520;18.920;2023-05-25T04:22:52;98708.72;;;20.40;62.38
42519;BME280;28147;47.520;18.920;2023-05-25T04:25:17;98718.88;;;20.48;62.09
42519;BME280;28147;47.520;18.920;2023-05-25T04:27:44;98721.81;;;20.09;62.88
42519;BME280;28147;47.520;18.920;2023-05-25T04:30:11;98718.91;;;20.24;62.51
42519;BME280;28147;47.520;18.920;2023-05-25T04:32:37;98713.66;;;20.76;61.33
42519;BME280;28147;47.520;18.920;2023-05-25T04:35:03;98708.75;;;20.97;59.96
42519;BME280;28147;47.520;18.920;2023-05-25T04:37:30;98727.22;;;21.46;59.44
42519;BME280;28147;47.520;18.920;2023-05-25T04:39:56;98723.72;;;22.20;57.39
42519;BME280;28147;47.520;18.920;2023-05-25T04:42:23;98726.38;;;22.25;57.14
42519;BME280;28147;47.520;18.920;2023-05-25T04:44:50;98711.56;;;22.58;55.78
42519;BME280;28147;47.520;18.920;2023-05-25T04:47:17;98710.78;;;22.80;55.50
42519;BME280;28147;47.520;18.920;2023-05-25T04:49:43;98709.38;;;22.83;55.76
42519;BME280;28147;47.520;18.920;2023-05-25T04:52:08;98716.06;;;22.99;55.46
42519;BME280;28147;47.520;18.920;2023-05-25T04:54:35;98715.47;;;23.25;54.70
42519;BME280;28147;47.520;18.920;2023-05-25T04:57:01;98713.69;;;23.20;54.76
42519;BME280;28147;47.520;18.920;2023-05-25T04:59:27;98710.75;;;23.30;54.81
42519;BME280;28147;47.520;18.920;2023-05-25T05:01:52;98710.88;;;23.79;53.90
42519;BME280;28147;47.520;18.920;2023-05-25T05:04:18;98705.88;;;24.12;52.94
42519;BME280;28147;47.520;18.920;2023-05-25T05:06:43;98717.19;;;23.97;53.52
42519;BME280;28147;47.520;18.920;2023-05-25T05:09:09;98713.59;;;23.79;53.90
42519;BME280;28147;47.520;18.920;2023-05-25T05:11:34;98717.59;;;23.59;55.12
42519;BME280;28147;47.520;18.920;2023-05-25T05:13:59;98724.25;;;22.86;55.91
42519;BME280;28147;47.520;18.920;2023-05-25T05:16:25;98726.66;;;23.68;54.82
42519;BME280;28147;47.520;18.920;2023-05-25T05:18:50;98719.13;;;23.43;55.91
42519;BME280;28147;47.520;18.920;2023-05-25T05:21:16;98722.81;;;22.66;57.99
42519;BME280;28147;47.520;18.920;2023-05-25T05:23:42;98725.78;;;23.14;57.72
42519;BME280;28147;47.520;18.920;2023-05-25T05:26:07;98717.06;;;23.48;56.77
42519;BME280;28147;47.520;18.920;2023-05-25T05:28:35;98722.78;;;23.16;57.02
42519;BME280;28147;47.520;18.920;2023-05-25T05:31:01;98713.94;;;23.10;58.04
42519;BME280;28147;47.520;18.920;2023-05-25T05:33:26;98727.22;;;23.88;55.98
42519;BME280;28147;47.520;18.920;2023-05-25T05:35:52;98725.94;;;23.85;54.38
42519;BME280;28147;47.520;18.920;2023-05-25T05:38:17;98732.50;;;23.84;54.41
42519;BME280;28147;47.520;18.920;2023-05-25T05:40:43;98721.06;;;24.44;53.70
42519;BME280;28147;47.520;18.920;2023-05-25T05:43:10;98725.88;;;24.08;54.77
42519;BME280;28147;47.520;18.920;2023-05-25T05:45:36;98722.50;;;24.02;53.56
42519;BME280;28147;47.520;18.920;2023-05-25T05:48:02;98727.78;;;24.47;52.64
42519;BME280;28147;47.520;18.920;2023-05-25T05:50:29;98733.63;;;24.97;50.97
42519;BME280;28147;47.520;18.920;2023-05-25T05:52:54;98731.88;;;23.87;53.67
42519;BME280;28147;47.520;18.920;2023-05-25T05:55:22;98724.97;;;24.21;52.62
42519;BME280;28147;47.520;18.920;2023-05-25T05:57:47;98730.97;;;24.40;53.17
42519;BME280;28147;47.520;18.920;2023-05-25T06:00:13;98732.19;;;25.26;50.79
42519;BME280;28147;47.520;18.920;2023-05-25T06:02:40;98739.06;;;25.41;50.02
42519;BME280;28147;47.520;18.920;2023-05-25T06:05:06;98734.56;;;25.45;49.80
42519;BME280;28147;47.520;18.920;2023-05-25T06:07:31;98743.47;;;25.89;49.15
42519;BME280;28147;47.520;18.920;2023-05-25T06:09:59;98742.97;;;25.95;48.86
42519;BME280;28147;47.520;18.920;2023-05-25T06:12:25;98737.63;;;25.26;50.25
42519;BME280;28147;47.520;18.920;2023-05-25T06:14:50;98737.69;;;25.90;49.79
42519;BME280;28147;47.520;18.920;2023-05-25T06:17:16;98752.81;;;26.17;49.39
42519;BME280;28147;47.520;18.920;2023-05-25T06:19:41;98750.50;;;26.66;47.67
42519;BME280;28147;47.520;18.920;2023-05-25T06:22:07;98749.50;;;26.41;48.34
42519;BME280;28147;47.520;18.920;2023-05-25T06:24:35;98748.00;;;26.82;47.23
42519;BME280;28147;47.520;18.920;2023-05-25T06:27:06;98751.34;;;27.30;45.61
42519;BME280;28147;47.520;18.920;2023-05-25T06:29:32;98749.69;;;27.16;45.06
42519;BME280;28147;47.520;18.920;2023-05-25T06:31:58;98757.25;;;26.69;45.38
42519;BME280;28147;47.520;18.920;2023-05-25T06:34:24;98745.84;;;27.51;45.20
42519;BME280;28147;47.520;18.920;2023-05-25T06:36:50;98743.81;;;27.27;45.43
42519;BME280;28147;47.520;18.920;2023-05-25T06:39:16;98745.97;;;27.54;44.72
42519;BME280;28147;47.520;18.920;2023-05-25T06:41:42;98745.47;;;27.73;44.75
42519;BME280;28147;47.520;18.920;2023-05-25T06:44:07;98747.59;;;28.01;43.74
42519;BME280;28147;47.520;18.920;2023-05-25T06:46:32;98744.91;;;27.13;44.66
42519;BME280;28147;47.520;18.920;2023-05-25T06:49:01;98746.84;;;27.79;44.10
42519;BME280;28147;47.520;18.920;2023-05-25T06:51:27;98752.34;;;27.92;44.16
42519;BME280;28147;47.520;18.920;2023-05-25T06:53:56;98756.88;;;27.75;44.20
42519;BME280;28147;47.520;18.920;2023-05-25T06:56:22;98758.53;;;28.01;43.79
42519;BME280;28147;47.520;18.920;2023-05-25T06:58:48;98761.06;;;28.30;44.21
42519;BME280;28147;47.520;18.920;2023-05-25T07:01:14;98756.38;;;28.31;43.97
42519;BME280;28147;47.520;18.920;2023-05-25T07:03:39;98767.19;;;28.03;44.25
42519;BME280;28147;47.520;18.920;2023-05-25T07:06:05;98763.22;;;28.00;43.56
42519;BME280;28147;47.520;18.920;2023-05-25T07:08:31;98767.41;;;27.85;44.14
42519;BME280;28147;47.520;18.920;2023-05-25T07:10:57;98764.59;;;27.73;44.31
42519;BME280;28147;47.520;18.920;2023-05-25T07:13:22;98761.94;;;28.10;43.72
42519;BME280;28147;47.520;18.920;2023-05-25T07:15:47;98759.50;;;28.42;43.72
42519;BME280;28147;47.520;18.920;2023-05-25T07:18:13;98764.91;;;27.93;44.58
42519;BME280;28147;47.520;18.920;2023-05-25T07:20:39;98772.72;;;28.52;42.71
42519;BME280;28147;47.520;18.920;2023-05-25T07:23:11;98768.34;;;28.88;43.50
42519;BME280;28147;47.520;18.920;2023-05-25T07:25:38;98771.00;;;28.47;43.96
42519;BME280;28147;47.520;18.920;2023-05-25T07:28:04;98769.91;;;27.91;44.90
42519;BME280;28147;47.520;18.920;2023-05-25T07:30:30;98776.16;;;27.25;45.26
42519;BME280;28147;47.520;18.920;2023-05-25T07:32:56;98779.81;;;26.78;46.50
42519;BME280;28147;47.520;18.920;2023-05-25T07:35:22;98772.31;;;26.46;47.02
42519;BME280;28147;47.520;18.920;2023-05-25T07:38:01;98776.28;;;26.10;48.33
42519;BME280;28147;47.520;18.920;2023-05-25T07:40:28;98768.47;;;26.00;47.69
42519;BME280;28147;47.520;18.920;2023-05-25T07:42:53;98778.84;;;25.24;48.91
42519;BME280;28147;47.520;18.920;2023-05-25T07:45:19;98778.34;;;26.22;47.51
42519;BME280;28147;47.520;18.920;2023-05-25T07:47:45;98783.09;;;27.43;46.06
42519;BME280;28147;47.520;18.920;2023-05-25T07:50:11;98761.34;;;27.47;45.52
42519;BME280;28147;47.520;18.920;2023-05-25T07:52:37;98784.22;;;28.33;45.33
42519;BME280;28147;47.520;18.920;2023-05-25T07:55:06;98783.47;;;28.57;43.22
42519;BME280;28147;47.520;18.920;2023-05-25T07:57:33;98773.53;;;27.82;43.89
42519;BME280;28147;47.520;18.920;2023-05-25T07:59:58;98775.47;;;28.40;43.39
42519;BME280;28147;47.520;18.920;2023-05-25T08:02:24;98774.28;;;28.77;42.34
42519;BME280;28147;47.520;18.920;2023-05-25T08:04:49;98774.53;;;28.35;43.38
42519;BME280;28147;47.520;18.920;2023-05-25T08:07:18;98781.16;;;28.34;43.17
42519;BME280;28147;47.520;18.920;2023-05-25T08:09:43;98771.09;;;28.88;42.32
42519;BME280;28147;47.520;18.920;2023-05-25T08:12:09;98771.44;;;28.25;43.17
42519;BME280;28147;47.520;18.920;2023-05-25T08:14:34;98768.81;;;27.37;45.32
42519;BME280;28147;47.520;18.920;2023-05-25T08:16:59;98779.16;;;27.32;45.39
42519;BME280;28147;47.520;18.920;2023-05-25T08:19:26;98779.72;;;26.75;47.31
42519;BME280;28147;47.520;18.920;2023-05-25T08:21:52;98781.38;;;27.17;46.05
42519;BME280;28147;47.520;18.920;2023-05-25T08:24:18;98777.78;;;26.96;45.97
42519;BME280;28147;47.520;18.920;2023-05-25T08:26:43;98785.06;;;26.92;45.85
42519;BME280;28147;47.520;18.920;2023-05-25T08:29:12;98778.34;;;27.64;45.69
42519;BME280;28147;47.520;18.920;2023-05-25T08:31:38;98785.97;;;26.75;46.91
42519;BME280;28147;47.520;18.920;2023-05-25T08:34:03;98790.72;;;27.08;46.96
42519;BME280;28147;47.520;18.920;2023-05-25T08:36:28;98791.38;;;27.05;46.81
42519;BME280;28147;47.520;18.920;2023-05-25T08:38:54;98785.22;;;27.71;46.37
42519;BME280;28147;47.520;18.920;2023-05-25T08:41:19;98787.69;;;27.84;45.55
42519;BME280;28147;47.520;18.920;2023-05-25T08:43:48;98786.00;;;27.38;45.47
42519;BME280;28147;47.520;18.920;2023-05-25T08:46:14;98791.97;;;26.89;46.21
42519;BME280;28147;47.520;18.920;2023-05-25T08:48:48;98787.94;;;27.37;46.60
42519;BME280;28147;47.520;18.920;2023-05-25T08:51:16;98799.34;;;27.19;45.78
42519;BME280;28147;47.520;18.920;2023-05-25T08:53:42;98797.56;;;26.72;46.57
42519;BME280;28147;47.520;18.920;2023-05-25T08:56:13;98799.56;;;26.54;47.03
42519;BME280;28147;47.520;18.920;2023-05-25T08:58:45;98801.84;;;26.43;46.86
42519;BME280;28147;47.520;18.920;2023-05-25T09:01:17;98792.69;;;27.82;45.52
42519;BME280;28147;47.520;18.920;2023-05-25T09:03:44;98792.00;;;28.55;44.35
42519;BME280;28147;47.520;18.920;2023-05-25T09:06:10;98794.50;;;27.24;45.34
42519;BME280;28147;47.520;18.920;2023-05-25T09:08:35;98794.31;;;27.00;45.27
42519;BME280;28147;47.520;18.920;2023-05-25T09:11:04;98796.00;;;27.34;45.86
42519;BME280;28147;47.520;18.920;2023-05-25T09:13:30;98796.63;;;26.68;46.50
42519;BME280;28147;47.520;18.920;2023-05-25T09:15:56;98786.41;;;26.56;47.38
42519;BME280;28147;47.520;18.920;2023-05-25T09:18:21;98795.03;;;26.67;46.31
42519;BME280;28147;47.520;18.920;2023-05-25T09:20:47;98791.97;;;26.89;46.72
42519;BME280;28147;47.520;18.920;2023-05-25T09:23:13;98795.41;;;26.57;47.57
42519;BME280;28147;47.520;18.920;2023-05-25T09:25:39;98795.69;;;26.85;46.59
42519;BME280;28147;47.520;18.920;2023-05-25T09:28:07;98792.94;;;26.93;46.82
42519;BME280;28147;47.520;18.920;2023-05-25T09:30:33;98798.69;;;27.22;46.30
42519;BME280;28147;47.520;18.920;2023-05-25T09:33:13;98801.97;;;26.85;45.75
42519;BME280;28147;47.520;18.920;2023-05-25T09:35:39;98804.38;;;26.87;44.75
42519;BME280;28147;47.520;18.920;2023-05-25T09:38:05;98808.34;;;26.68;45.56
42519;BME280;28147;47.520;18.920;2023-05-25T09:40:32;98798.78;;;27.46;43.02
42519;BME280;28147;47.520;18.920;2023-05-25T09:42:58;98809.38;;;27.35;42.97
42519;BME280;28147;47.520;18.920;2023-05-25T09:45:24;98807.56;;;27.39;44.29
42519;BME280;28147;47.520;18.920;2023-05-25T09:47:58;98805.81;;;27.56;43.01
42519;BME280;28147;47.520;18.920;2023-05-25T09:50:26;98805.44;;;28.11;43.42
42519;BME280;28147;47.520;18.920;2023-05-25T09:52:56;98809.63;;;28.09;41.96
42519;BME280;28147;47.520;18.920;2023-05-25T09:55:22;98806.41;;;27.95;44.03
42519;BME280;28147;47.520;18.920;2023-05-25T09:57:52;98811.72;;;28.36;43.42
42519;BME280;28147;47.520;18.920;2023-05-25T10:00:19;98804.03;;;28.05;40.95
42519;BME280;28147;47.520;18.920;2023-05-25T10:02:45;98805.06;;;28.01;42.32
42519;BME280;28147;47.520;18.920;2023-05-25T10:05:11;98810.16;;;28.60;40.74
42519;BME280;28147;47.520;18.920;2023-05-25T10:07:37;98805.69;;;29.45;39.41
42519;BME280;28147;47.520;18.920;2023-05-25T10:10:05;98803.09;;;29.64;38.68
42519;BME280;28147;47.520;18.920;2023-05-25T10:12:32;98807.69;;;30.04;37.85
42519;BME280;28147;47.520;18.920;2023-05-25T10:15:02;98796.47;;;30.09;37.92
42519;BME280;28147;47.520;18.920;2023-05-25T10:17:52;98802.75;;;29.66;39.41
42519;BME280;28147;47.520;18.920;2023-05-25T10:20:17;98798.13;;;28.89;40.08
42519;BME280;28147;47.520;18.920;2023-05-25T10:22:56;98806.47;;;28.93;40.50
42519;BME280;28147;47.520;18.920;2023-05-25T10:25:33;98799.31;;;28.39;40.94
42519;BME280;28147;47.520;18.920;2023-05-25T10:28:06;98796.03;;;29.51;39.62
42519;BME280;28147;47.520;18.920;2023-05-25T10:30:32;98782.28;;;30.07;36.44
42519;BME280;28147;47.520;18.920;2023-05-25T10:32:58;98784.34;;;30.93;36.74
42519;BME280;28147;47.520;18.920;2023-05-25T10:35:26;98789.22;;;29.45;37.83
42519;BME280;28147;47.520;18.920;2023-05-25T10:37:52;98792.91;;;28.23;40.55
42519;BME280;28147;47.520;18.920;2023-05-25T10:40:20;98793.69;;;28.11;41.76
42519;BME280;28147;47.520;18.920;2023-05-25T10:42:47;98791.81;;;28.03;41.45
42519;BME280;28147;47.520;18.920;2023-05-25T10:45:13;98793.47;;;28.41;40.17
42519;BME280;28147;47.520;18.920;2023-05-25T10:47:40;98785.78;;;29.76;38.77
42519;BME280;28147;47.520;18.920;2023-05-25T10:50:23;98782.41;;;29.54;38.66
42519;BME280;28147;47.520;18.920;2023-05-25T10:53:08;98786.34;;;29.13;39.76
42519;BME280;28147;47.520;18.920;2023-05-25T10:56:03;98770.97;;;29.65;38.70
42519;BME280;28147;47.520;18.920;2023-05-25T10:58:31;98773.06;;;30.63;37.01
42519;BME280;28147;47.520;18.920;2023-05-25T11:09:27;98776.78;;;29.07;38.76
42519;BME280;28147;47.520;18.920;2023-05-25T11:22:20;98762.03;;;29.68;39.52
42519;BME280;28147;47.520;18.920;2023-05-25T11:24:52;98763.22;;;29.83;38.30
42519;BME280;28147;47.520;18.920;2023-05-25T11:27:27;98761.53;;;29.78;37.83
42519;BME280;28147;47.520;18.920;2023-05-25T11:29:54;98760.59;;;30.34;36.94
42519;BME280;28147;47.520;18.920;2023-05-25T11:32:22;98760.69;;;30.21;38.08
42519;BME280;28147;47.520;18.920;2023-05-25T11:34:47;98757.56;;;29.91;37.25
42519;BME280;28147;47.520;18.920;2023-05-25T11:37:18;98766.38;;;30.28;36.71
42519;BME280;28147;47.520;18.920;2023-05-25T11:39:48;98755.78;;;29.83;37.83
42519;BME280;28147;47.520;18.920;2023-05-25T11:42:13;98755.97;;;29.90;37.16
42519;BME280;28147;47.520;18.920;2023-05-25T11:44:40;98754.31;;;30.17;35.79
42519;BME280;28147;47.520;18.920;2023-05-25T11:47:09;98749.94;;;30.99;35.52
42519;BME280;28147;47.520;18.920;2023-05-25T11:49:47;98747.72;;;30.38;36.11
42519;BME280;28147;47.520;18.920;2023-05-25T11:52:15;98747.25;;;29.72;37.52
42519;BME280;28147;47.520;18.920;2023-05-25T11:54:41;98737.53;;;29.75;37.52
42519;BME280;28147;47.520;18.920;2023-05-25T11:57:14;98729.91;;;29.68;37.26
42519;BME280;28147;47.520;18.920;2023-05-25T11:59:46;98726.63;;;29.34;37.60
42519;BME280;28147;47.520;18.920;2023-05-25T12:02:12;98728.16;;;29.92;37.57
42519;BME280;28147;47.520;18.920;2023-05-25T12:04:38;98731.41;;;30.45;36.53
42519;BME280;28147;47.520;18.920;2023-05-25T12:07:07;98716.19;;;29.68;37.72
42519;BME280;28147;47.520;18.920;2023-05-25T12:09:33;98716.66;;;29.70;37.86
42519;BME280;28147;47.520;18.920;2023-05-25T12:11:59;98722.25;;;29.18;39.00
42519;BME280;28147;47.520;18.920;2023-05-25T12:14:27;98722.94;;;29.15;38.63
42519;BME280;28147;47.520;18.920;2023-05-25T12:16:52;98723.06;;;29.18;39.15
42519;BME280;28147;47.520;18.920;2023-05-25T12:19:18;98714.50;;;29.79;37.16
42519;BME280;28147;47.520;18.920;2023-05-25T12:21:45;98714.56;;;29.51;39.48
42519;BME280;28147;47.520;18.920;2023-05-25T12:24:12;98722.84;;;29.11;39.48
42519;BME280;28147;47.520;18.920;2023-05-25T12:29:13;98712.59;;;28.96;39.37
42519;BME280;28147;47.520;18.920;2023-05-25T12:31:39;98712.94;;;29.78;38.59
42519;BME280;28147;47.520;18.920;2023-05-25T12:36:37;98710.34;;;30.68;37.49
42519;BME280;28147;47.520;18.920;2023-05-25T12:39:04;98717.34;;;30.30;37.12
42519;BME280;28147;47.520;18.920;2023-05-25T12:41:30;98712.66;;;30.31;37.54
42519;BME280;28147;47.520;18.920;2023-05-25T12:43:56;98711.16;;;29.70;38.30
42519;BME280;28147;47.520;18.920;2023-05-25T12:46:25;98711.41;;;30.13;37.10
42519;BME280;28147;47.520;18.920;2023-05-25T12:48:51;98714.34;;;30.36;35.77
42519;BME280;28147;47.520;18.920;2023-05-25T12:51:17;98714.16;;;29.65;38.16
42519;BME280;28147;47.520;18.920;2023-05-25T12:53:49;98715.75;;;29.38;39.36
42519;BME280;28147;47.520;18.920;2023-05-25T12:56:15;98709.00;;;29.36;38.77
42519;BME280;28147;47.520;18.920;2023-05-25T12:58:41;98705.38;;;29.60;39.27
42519;BME280;28147;47.520;18.920;2023-05-25T13:01:07;98704.94;;;29.73;38.34
42519;BME280;28147;47.520;18.920;2023-05-25T13:03:33;98698.31;;;29.90;38.72
42519;BME280;28147;47.520;18.920;2023-05-25T13:05:59;98697.19;;;29.47;39.18
42519;BME280;28147;47.520;18.920;2023-05-25T13:08:27;98700.28;;;29.74;39.01
42519;BME280;28147;47.520;18.920;2023-05-25T13:10:52;98698.16;;;29.11;39.47
42519;BME280;28147;47.520;18.920;2023-05-25T13:13:17;98693.31;;;29.20;39.12